Time;durP1;ratioP1;P1;durP2;ratioP2;P2;SDS_P1;SDS_P2;PMS_P1;PMS_P2;Temp;Humidity;BMP_temperature;BMP_pressure;BME280_temperature;BME280_humidity;BME280_pressure;Samples;Min_cycle;Max_cycle;Signal;HPM_P1;HPM_P2
2022/06/19 00:00:14;;;;;;;17.42;5.80;;;21.60;99.90;;;;;;5056519;28;20197;-75
2022/06/19 00:02:43;;;;;;;14.48;5.70;;;21.70;99.90;;;;;;5056269;28;20221;-75
2022/06/19 00:05:11;;;;;;;12.98;5.68;;;21.70;99.90;;;;;;5056458;28;20205;-75
2022/06/19 00:07:38;;;;;;;11.60;5.57;;;21.80;99.90;;;;;;5056419;28;20278;-75
2022/06/19 00:10:08;;;;;;;14.63;4.85;;;21.90;99.90;;;;;;5056408;28;20255;-74
2022/06/19 00:12:34;;;;;;;16.77;5.85;;;21.90;99.90;;;;;;5056103;28;20210;-74
2022/06/19 00:15:01;;;;;;;13.02;5.50;;;21.90;99.90;;;;;;5056673;28;20607;-75
2022/06/19 00:17:28;;;;;;;14.55;5.15;;;22.00;99.90;;;;;;5056244;28;20328;-75
2022/06/19 00:19:54;;;;;;;14.15;5.40;;;22.00;99.90;;;;;;5056289;28;20197;-74
2022/06/19 00:22:21;;;;;;;13.85;5.25;;;22.00;99.90;;;;;;5056430;28;20228;-74
2022/06/19 00:24:48;;;;;;;11.70;4.95;;;22.00;99.90;;;;;;5056232;28;20201;-74
2022/06/19 00:27:16;;;;;;;9.00;5.05;;;22.00;99.90;;;;;;5055988;28;20653;-74
2022/06/19 00:29:42;;;;;;;11.00;5.20;;;22.00;99.90;;;;;;5056034;28;20222;-74
2022/06/19 00:32:09;;;;;;;12.32;5.18;;;22.00;99.90;;;;;;5055799;28;20645;-74
2022/06/19 00:34:37;;;;;;;13.55;5.22;;;22.00;99.90;;;;;;5056139;28;20259;-74
2022/06/19 00:37:05;;;;;;;11.25;5.00;;;22.10;99.90;;;;;;5055875;28;20193;-74
2022/06/19 00:39:39;;;;;;;13.20;5.15;;;22.10;99.90;;;;;;5055706;28;20202;-74
2022/06/19 00:42:06;;;;;;;10.07;4.82;;;22.00;99.90;;;;;;5055847;28;20754;-74
2022/06/19 00:44:34;;;;;;;13.23;4.70;;;22.10;99.90;;;;;;5055890;28;20247;-74
2022/06/19 00:47:08;;;;;;;9.40;5.38;;;22.10;99.90;;;;;;5055742;28;20201;-74
2022/06/19 00:49:38;;;;;;;10.32;5.18;;;22.10;99.90;;;;;;5055806;28;20198;-74
2022/06/19 00:52:08;;;;;;;15.13;5.80;;;22.00;99.90;;;;;;5055493;28;20197;-74
2022/06/19 00:54:39;;;;;;;11.65;4.45;;;21.90;99.90;;;;;;5056007;28;20201;-74
2022/06/19 00:57:06;;;;;;;9.73;5.15;;;21.90;99.90;;;;;;5055781;28;20255;-74
2022/06/19 00:59:33;;;;;;;11.45;5.03;;;21.90;99.90;;;;;;5055834;28;20222;-74
2022/06/19 01:02:03;;;;;;;16.08;5.95;;;21.90;99.90;;;;;;5055398;28;20199;-74
2022/06/19 01:04:34;;;;;;;15.63;5.63;;;21.90;99.90;;;;;;5055468;28;20300;-74
2022/06/19 01:07:01;;;;;;;12.48;5.90;;;21.90;99.90;;;;;;5055673;28;20190;-74
2022/06/19 01:09:28;;;;;;;14.60;6.40;;;21.90;99.90;;;;;;5055536;28;20202;-74
2022/06/19 01:11:55;;;;;;;10.30;6.18;;;21.80;99.90;;;;;;5055447;28;20267;-74
2022/06/19 01:14:24;;;;;;;12.93;6.47;;;21.80;99.90;;;;;;5055378;28;20202;-73
2022/06/19 01:16:51;;;;;;;12.90;6.50;;;21.70;99.90;;;;;;5055058;28;20646;-73
2022/06/19 01:19:26;;;;;;;11.32;5.53;;;21.70;99.90;;;;;;5054799;28;20206;-73
2022/06/19 01:22:00;;;;;;;16.77;6.43;;;21.70;99.90;;;;;;5055132;28;20271;-75
2022/06/19 01:24:39;;;;;;;9.00;5.50;;;21.60;99.90;;;;;;5054377;28;20209;-75
2022/06/19 01:28:45;;;;;;;11.05;5.88;;;21.60;99.90;;;;;;5055081;28;20203;-75
2022/06/19 01:29:57;;;;;;;12.10;5.28;;;21.60;99.90;;;;;;5054762;28;20233;-75
2022/06/19 01:32:24;;;;;;;10.25;4.60;;;21.60;99.90;;;;;;5055049;28;20286;-74
2022/06/19 01:34:53;;;;;;;10.68;4.80;;;21.70;99.90;;;;;;5054767;28;20199;-74
2022/06/19 01:37:25;;;;;;;10.75;4.90;;;21.70;99.90;;;;;;5054880;28;20284;-75
2022/06/19 01:39:56;;;;;;;11.00;4.82;;;21.70;99.90;;;;;;5054791;28;20298;-74
2022/06/19 01:42:24;;;;;;;13.48;4.60;;;21.70;99.90;;;;;;5054613;28;20244;-75
2022/06/19 01:44:53;;;;;;;11.52;4.47;;;21.70;99.90;;;;;;5054471;28;20652;-74
2022/06/19 01:47:20;;;;;;;9.45;4.28;;;21.70;99.90;;;;;;5054446;28;20656;-74
2022/06/19 01:49:50;;;;;;;9.18;4.10;;;21.70;99.90;;;;;;5054520;28;20201;-75
2022/06/19 01:52:18;;;;;;;11.88;3.88;;;21.70;99.90;;;;;;5054415;28;20652;-75
2022/06/19 01:54:48;;;;;;;11.63;4.40;;;21.70;99.90;;;;;;5054346;28;20248;-75
2022/06/19 01:57:16;;;;;;;14.45;4.50;;;21.70;99.90;;;;;;5054477;28;20209;-75
2022/06/19 01:59:46;;;;;;;11.15;3.90;;;21.70;99.90;;;;;;5054203;28;20206;-75
2022/06/19 02:02:15;;;;;;;12.57;4.03;;;21.60;99.90;;;;;;5054213;28;20252;-75
2022/06/19 02:04:42;;;;;;;11.02;4.03;;;21.60;99.90;;;;;;5054167;28;20201;-75
2022/06/19 02:07:13;;;;;;;11.35;4.40;;;21.60;99.90;;;;;;5053891;28;20198;-75
2022/06/19 02:09:40;;;;;;;16.50;4.50;;;21.50;99.90;;;;;;5054190;28;20206;-74
2022/06/19 02:12:08;;;;;;;8.70;4.38;;;21.50;99.90;;;;;;5054093;28;20205;-75
2022/06/19 02:14:35;;;;;;;9.98;4.88;;;21.50;99.90;;;;;;5053276;28;20198;-75
2022/06/19 02:17:11;;;;;;;11.13;4.40;;;21.40;99.90;;;;;;5053695;28;20226;-74
2022/06/19 02:19:38;;;;;;;8.77;4.40;;;21.30;99.90;;;;;;5053769;28;20201;-74
2022/06/19 02:22:12;;;;;;;13.15;4.47;;;21.30;99.90;;;;;;5053958;28;20201;-75
2022/06/19 02:24:39;;;;;;;6.75;4.55;;;21.20;99.90;;;;;;5053895;28;20295;-73
2022/06/19 02:27:06;;;;;;;12.98;5.00;;;21.00;99.90;;;;;;5053746;28;20292;-74
2022/06/19 02:29:36;;;;;;;13.13;5.78;;;21.00;99.90;;;;;;5053603;28;20208;-74
2022/06/19 02:32:05;;;;;;;10.85;6.00;;;21.00;99.90;;;;;;5053497;28;20206;-74
2022/06/19 02:34:36;;;;;;;13.38;5.43;;;20.90;99.90;;;;;;5053501;28;20206;-74
2022/06/19 02:37:04;;;;;;;8.90;4.63;;;20.70;99.90;;;;;;5053561;28;20284;-74
2022/06/19 02:39:41;;;;;;;8.80;4.53;;;20.70;99.90;;;;;;5053572;28;20202;-75
2022/06/19 02:42:29;;;;;;;11.23;4.40;;;20.70;99.90;;;;;;5053388;28;20201;-75
2022/06/19 02:44:58;;;;;;;7.25;3.80;;;21.00;99.90;;;;;;5053359;28;20648;-74
2022/06/19 02:47:29;;;;;;;11.02;4.25;;;21.00;99.90;;;;;;5053545;28;20244;-75
2022/06/19 02:49:56;;;;;;;10.68;4.88;;;21.00;99.90;;;;;;5053575;28;20347;-74
2022/06/19 02:52:22;;;;;;;8.85;3.85;;;21.00;99.90;;;;;;5053394;28;20247;-75
2022/06/19 02:54:50;;;;;;;8.57;4.35;;;21.00;99.90;;;;;;5053195;28;20251;-75
2022/06/19 02:57:17;;;;;;;8.10;4.63;;;21.00;99.90;;;;;;5053100;28;20186;-75
2022/06/19 02:59:44;;;;;;;8.25;4.10;;;21.00;99.90;;;;;;5053358;28;20198;-75
2022/06/19 03:02:12;;;;;;;8.73;4.57;;;20.90;99.90;;;;;;5053309;28;20644;-75
2022/06/19 03:04:44;;;;;;;6.15;3.80;;;20.80;99.90;;;;;;5053045;28;20229;-75
2022/06/19 03:07:11;;;;;;;9.80;4.32;;;20.80;99.90;;;;;;5053062;28;20244;-75
2022/06/19 03:09:38;;;;;;;11.88;5.00;;;20.60;99.90;;;;;;5053001;28;20268;-75
2022/06/19 03:12:05;;;;;;;6.95;4.63;;;20.60;99.90;;;;;;5053181;28;20198;-75
2022/06/19 03:14:32;;;;;;;9.25;4.65;;;20.50;99.90;;;;;;5053003;28;20193;-74
2022/06/19 03:16:58;;;;;;;8.90;4.47;;;20.40;99.90;;;;;;5052745;28;20225;-74
2022/06/19 03:19:25;;;;;;;15.13;4.70;;;20.40;99.90;;;;;;5052944;28;20244;-74
2022/06/19 03:21:54;;;;;;;9.85;4.95;;;20.30;99.90;;;;;;5052612;28;20603;-74
2022/06/19 03:24:22;;;;;;;8.15;4.40;;;20.20;99.90;;;;;;5052640;28;20232;-74
2022/06/19 03:26:48;;;;;;;8.93;4.25;;;20.20;99.90;;;;;;5052898;28;20207;-75
2022/06/19 03:29:15;;;;;;;9.00;4.63;;;20.10;99.90;;;;;;5052767;28;20209;-74
2022/06/19 03:31:42;;;;;;;12.68;4.95;;;20.00;99.90;;;;;;5052720;28;20228;-75
2022/06/19 03:34:08;;;;;;;9.52;4.43;;;20.00;99.90;;;;;;5052723;28;20235;-75
2022/06/19 03:36:35;;;;;;;10.80;4.38;;;20.00;99.90;;;;;;5052585;28;20653;-74
2022/06/19 03:39:03;;;;;;;9.02;4.88;;;19.90;99.90;;;;;;5052594;28;20260;-74
2022/06/19 03:41:30;;;;;;;9.93;4.80;;;19.90;99.90;;;;;;5052744;28;20198;-75
2022/06/19 03:43:56;;;;;;;10.68;5.05;;;20.00;99.90;;;;;;5052604;28;20226;-74
2022/06/19 03:46:23;;;;;;;11.18;5.40;;;19.90;99.90;;;;;;5052682;28;20201;-74
2022/06/19 03:48:52;;;;;;;6.35;4.55;;;20.00;99.90;;;;;;5052584;28;20197;-74
2022/06/19 03:51:22;;;;;;;6.80;4.43;;;19.90;99.90;;;;;;5052454;28;20255;-75
2022/06/19 03:53:50;;;;;;;12.07;4.90;;;19.90;99.90;;;;;;5052746;28;20207;-74
2022/06/19 03:56:20;;;;;;;11.98;4.57;;;19.90;99.90;;;;;;5052496;28;20656;-74
2022/06/19 03:58:47;;;;;;;12.75;4.35;;;20.00;99.90;;;;;;5052503;28;20205;-75
2022/06/19 04:01:15;;;;;;;10.18;4.35;;;20.00;99.90;;;;;;5052440;28;20225;-75
2022/06/19 04:03:42;;;;;;;8.18;4.32;;;20.10;99.90;;;;;;5052245;28;20604;-75
2022/06/19 04:06:10;;;;;;;11.57;4.30;;;20.20;99.90;;;;;;5052316;28;20296;-74
2022/06/19 04:08:37;;;;;;;9.38;4.63;;;20.30;99.90;;;;;;5052607;28;20248;-75
2022/06/19 04:11:04;;;;;;;7.78;4.43;;;20.40;99.90;;;;;;5052383;28;20197;-75
2022/06/19 04:13:33;;;;;;;9.45;4.55;;;20.50;99.90;;;;;;5052352;28;20255;-74
2022/06/19 04:15:59;;;;;;;9.02;4.28;;;20.50;99.90;;;;;;5052303;28;20193;-74
2022/06/19 04:18:26;;;;;;;7.97;4.05;;;20.60;99.90;;;;;;5052055;28;20230;-75
2022/06/19 04:20:53;;;;;;;7.95;4.43;;;20.50;99.90;;;;;;5052488;28;20201;-74
2022/06/19 04:23:19;;;;;;;9.88;4.68;;;20.60;99.90;;;;;;5052297;28;20218;-75
2022/06/19 04:25:46;;;;;;;8.18;4.40;;;20.60;99.90;;;;;;5052341;28;20198;-74
2022/06/19 04:28:13;;;;;;;9.13;4.45;;;20.70;99.90;;;;;;5052334;28;20209;-75
2022/06/19 04:30:46;;;;;;;9.57;4.43;;;20.60;99.90;;;;;;5052169;28;20227;-75
2022/06/19 04:33:13;;;;;;;9.85;5.15;;;20.50;99.90;;;;;;5052089;28;20229;-75
2022/06/19 04:35:40;;;;;;;9.57;5.10;;;20.60;99.90;;;;;;5052289;28;20316;-75
2022/06/19 04:38:06;;;;;;;9.55;5.03;;;20.60;99.90;;;;;;5055625;28;20194;-75
2022/06/19 04:40:34;;;;;;;7.80;5.03;;;20.60;99.90;;;;;;5055826;28;20251;-74
2022/06/19 04:43:01;;;;;;;15.82;4.85;;;20.60;99.90;;;;;;5055449;28;20198;-74
2022/06/19 04:45:27;;;;;;;8.35;4.68;;;20.60;99.90;;;;;;5055643;28;20255;-74
2022/06/19 04:47:55;;;;;;;9.13;4.57;;;20.70;99.90;;;;;;5055714;28;20202;-75
2022/06/19 04:50:22;;;;;;;9.57;4.80;;;20.70;99.90;;;;;;5055563;28;20243;-75
2022/06/19 04:52:49;;;;;;;9.65;4.97;;;20.80;99.90;;;;;;5055533;28;20205;-74
2022/06/19 04:55:17;;;;;;;11.07;4.63;;;20.90;99.90;;;;;;5055531;28;20198;-75
2022/06/19 04:57:45;;;;;;;11.70;4.70;;;21.00;99.90;;;;;;5055308;28;20671;-74
2022/06/19 05:00:15;;;;;;;9.25;4.72;;;21.00;99.90;;;;;;5055215;28;20556;-75
2022/06/19 05:02:41;;;;;;;9.57;4.85;;;21.00;99.90;;;;;;5055451;28;20206;-75
2022/06/19 05:05:15;;;;;;;7.50;5.07;;;21.10;99.90;;;;;;5055355;28;20229;-75
2022/06/19 05:07:42;;;;;;;8.23;4.60;;;21.20;99.90;;;;;;5055160;28;20197;-75
2022/06/19 05:10:10;;;;;;;8.93;4.75;;;21.30;99.90;;;;;;5055240;28;20197;-75
2022/06/19 05:12:37;;;;;;;11.05;5.00;;;21.40;99.90;;;;;;5054947;28;20200;-74
2022/06/19 05:15:05;;;;;;;8.60;4.60;;;21.50;99.90;;;;;;5055276;28;20197;-75
2022/06/19 05:17:33;;;;;;;8.88;4.20;;;21.50;99.90;;;;;;5054931;28;20240;-75
2022/06/19 05:19:59;;;;;;;11.07;4.70;;;21.60;99.90;;;;;;5055079;28;20205;-75
2022/06/19 05:22:27;;;;;;;9.00;4.88;;;21.70;99.90;;;;;;5054965;28;20202;-74
2022/06/19 05:24:54;;;;;;;9.77;4.55;;;21.90;99.90;;;;;;5054728;28;20316;-75
2022/06/19 05:27:21;;;;;;;8.50;4.53;;;22.10;99.90;;;;;;5054730;28;20255;-74
2022/06/19 05:29:47;;;;;;;14.60;4.88;;;22.20;99.90;;;;;;5054921;28;20197;-75
2022/06/19 05:32:14;;;;;;;9.98;4.82;;;22.30;99.90;;;;;;5054681;28;20198;-74
2022/06/19 05:34:41;;;;;;;8.35;4.53;;;22.40;99.90;;;;;;5054783;28;20264;-75
2022/06/19 05:37:07;;;;;;;10.05;4.70;;;22.60;99.90;;;;;;5054821;28;20251;-74
2022/06/19 05:39:35;;;;;;;10.55;4.18;;;22.70;99.90;;;;;;5054510;28;20198;-74
2022/06/19 05:42:04;;;;;;;13.27;4.78;;;22.80;99.90;;;;;;5054724;28;20252;-74
2022/06/19 05:44:30;;;;;;;7.68;4.50;;;22.90;99.90;;;;;;5054685;28;20226;-74
2022/06/19 05:46:57;;;;;;;9.35;4.18;;;23.00;99.90;;;;;;5054707;28;20225;-74
2022/06/19 05:49:24;;;;;;;10.45;3.97;;;23.10;99.90;;;;;;5053376;28;20206;-75
2022/06/19 05:51:50;;;;;;;8.60;3.90;;;23.30;99.90;;;;;;5054377;28;20203;-74
2022/06/19 05:54:17;;;;;;;10.93;4.38;;;23.40;99.90;;;;;;5054271;28;20599;-74
2022/06/19 05:56:45;;;;;;;8.10;4.40;;;23.50;99.90;;;;;;5054529;28;20198;-75
2022/06/19 05:59:11;;;;;;;9.30;3.90;;;23.60;99.90;;;;;;5054347;28;20201;-75
2022/06/19 06:01:38;;;;;;;9.40;3.63;;;23.70;99.90;;;;;;5054226;28;20243;-75
2022/06/19 06:04:05;;;;;;;9.80;4.30;;;23.90;99.90;;;;;;5054071;28;20650;-75
2022/06/19 06:06:33;;;;;;;10.15;4.07;;;23.90;99.90;;;;;;5054104;28;20209;-75
2022/06/19 06:09:00;;;;;;;8.73;4.43;;;24.00;99.90;;;;;;5054002;28;20201;-75
2022/06/19 06:11:27;;;;;;;10.45;4.03;;;24.10;99.90;;;;;;5054124;28;20194;-75
2022/06/19 06:13:55;;;;;;;14.00;4.65;;;24.20;99.90;;;;;;5054066;28;20259;-75
2022/06/19 06:16:23;;;;;;;8.90;4.00;;;24.20;99.90;;;;;;5053719;28;20209;-77
2022/06/19 06:18:50;;;;;;;13.02;4.30;;;24.10;99.90;;;;;;5053569;28;20279;-78
2022/06/19 06:21:19;;;;;;;11.15;3.97;;;24.30;99.90;;;;;;5053746;28;20202;-76
2022/06/19 06:23:47;;;;;;;7.13;4.32;;;24.30;99.90;;;;;;5053803;28;20224;-77
2022/06/19 06:26:20;;;;;;;8.82;4.20;;;24.40;99.90;;;;;;5053692;28;20198;-77
2022/06/19 06:28:49;;;;;;;11.88;4.45;;;24.40;99.90;;;;;;5053693;28;20251;-77
2022/06/19 06:31:19;;;;;;;10.02;4.78;;;24.50;99.90;;;;;;5053507;28;20201;-77
2022/06/19 06:33:46;;;;;;;9.35;4.05;;;24.60;99.40;;;;;;5053290;28;20198;-77
2022/06/19 06:36:13;;;;;;;9.90;4.47;;;24.60;99.40;;;;;;5053654;28;20332;-77
2022/06/19 06:38:40;;;;;;;9.55;4.55;;;24.70;99.70;;;;;;5053552;28;20198;-77
2022/06/19 06:41:09;;;;;;;8.73;4.20;;;24.70;99.40;;;;;;5053636;28;20198;-77
2022/06/19 06:43:37;;;;;;;11.82;4.07;;;24.70;99.40;;;;;;5053488;28;20198;-77
2022/06/19 06:46:07;;;;;;;12.48;4.30;;;24.90;99.60;;;;;;5053735;28;20603;-77
2022/06/19 06:48:35;;;;;;;10.50;4.10;;;24.90;99.30;;;;;;5053402;28;20204;-80
2022/06/19 06:51:06;;;;;;;8.27;4.05;;;25.00;99.30;;;;;;5053462;28;20253;-80
2022/06/19 06:53:33;;;;;;;8.75;4.90;;;25.10;99.30;;;;;;5053629;28;20202;-81
2022/06/19 06:55:59;;;;;;;8.82;4.90;;;25.30;99.40;;;;;;5053519;28;20212;-81
2022/06/19 06:58:26;;;;;;;6.85;4.22;;;25.40;98.70;;;;;;5053196;28;20201;-81
2022/06/19 07:00:54;;;;;;;9.10;4.70;;;25.50;98.50;;;;;;5052813;28;20280;-82
2022/06/19 07:03:20;;;;;;;10.95;4.68;;;25.70;98.30;;;;;;5053375;28;20201;-81
2022/06/19 07:05:48;;;;;;;10.75;4.07;;;25.80;97.30;;;;;;5052893;28;20259;-80
2022/06/19 07:08:15;;;;;;;14.20;5.30;;;25.90;95.80;;;;;;5053262;28;20232;-80
2022/06/19 07:10:42;;;;;;;9.88;4.28;;;25.90;96.00;;;;;;5053080;28;20591;-80
2022/06/19 07:13:10;;;;;;;10.02;4.47;;;26.00;96.30;;;;;;5053020;28;20603;-80
2022/06/19 07:15:37;;;;;;;13.00;4.88;;;26.20;95.20;;;;;;5052881;28;20232;-80
2022/06/19 07:18:04;;;;;;;12.70;5.05;;;26.40;95.00;;;;;;5052869;28;20229;-80
2022/06/19 07:20:31;;;;;;;11.35;4.50;;;26.40;94.90;;;;;;5052972;28;20198;-80
2022/06/19 07:22:59;;;;;;;20.50;4.97;;;26.60;95.60;;;;;;5052912;28;20193;-80
2022/06/19 07:25:25;;;;;;;11.32;4.63;;;26.60;95.60;;;;;;5052929;28;20598;-80
2022/06/19 07:27:52;;;;;;;9.35;4.63;;;26.70;95.30;;;;;;5052748;28;20288;-80
2022/06/19 07:30:25;;;;;;;11.48;4.95;;;26.80;95.20;;;;;;5052696;28;20197;-80
2022/06/19 07:32:52;;;;;;;11.45;5.30;;;26.90;95.10;;;;;;5052891;28;20202;-77
2022/06/19 07:35:19;;;;;;;17.45;4.97;;;27.00;95.40;;;;;;5052792;28;20534;-76
2022/06/19 07:37:46;;;;;;;18.75;4.65;;;27.10;93.90;;;;;;5052515;28;20193;-76
2022/06/19 07:40:17;;;;;;;12.88;4.93;;;27.30;94.00;;;;;;5052570;28;20600;-76
2022/06/19 07:42:44;;;;;;;13.10;5.10;;;27.40;93.00;;;;;;5052351;28;20229;-77
2022/06/19 07:45:12;;;;;;;9.30;5.07;;;27.40;91.50;;;;;;5052710;28;20237;-77
2022/06/19 07:50:23;;;;;;;13.85;5.07;;;27.50;89.30;;;;;;5052327;28;20205;-79
2022/06/19 07:52:51;;;;;;;14.27;5.18;;;27.80;89.30;;;;;;5052383;28;20243;-79
2022/06/19 07:55:22;;;;;;;14.32;5.30;;;28.00;88.10;;;;;;5052561;28;20198;-79
2022/06/19 07:57:49;;;;;;;19.52;5.85;;;28.00;87.70;;;;;;5052637;28;20604;-79
2022/06/19 08:00:22;;;;;;;12.20;5.07;;;28.00;87.60;;;;;;5052272;28;20201;-79
2022/06/19 08:02:51;;;;;;;10.32;4.72;;;28.30;88.00;;;;;;5052552;28;20197;-78
2022/06/19 08:05:19;;;;;;;13.65;5.00;;;28.70;85.70;;;;;;5051860;28;20248;-78
2022/06/19 08:07:53;;;;;;;14.27;5.70;;;29.10;83.50;;;;;;5052121;28;20265;-78
2022/06/19 08:10:23;;;;;;;13.40;5.82;;;29.20;80.70;;;;;;5052657;28;20206;-78
2022/06/19 08:12:52;;;;;;;14.45;5.50;;;29.40;79.30;;;;;;5055586;28;20607;-79
2022/06/19 08:15:19;;;;;;;11.35;5.28;;;29.70;77.60;;;;;;5056242;28;20208;-79
2022/06/19 08:17:46;;;;;;;13.43;6.38;;;29.80;76.30;;;;;;5055981;28;20238;-78
2022/06/19 08:20:14;;;;;;;12.85;6.50;;;29.70;74.20;;;;;;5056041;28;20610;-79
2022/06/19 08:22:41;;;;;;;15.82;6.25;;;29.50;72.50;;;;;;5056053;28;20687;-76
2022/06/19 08:25:09;;;;;;;13.15;6.47;;;29.70;72.20;;;;;;5055887;28;20275;-76
2022/06/19 08:27:40;;;;;;;14.07;6.07;;;29.60;71.90;;;;;;5056004;28;20201;-76
2022/06/19 08:30:09;;;;;;;12.02;6.30;;;29.80;72.00;;;;;;5055883;28;20209;-76
2022/06/19 08:32:36;;;;;;;13.85;7.00;;;30.10;72.30;;;;;;5055825;28;20198;-80
2022/06/19 08:35:03;;;;;;;13.23;6.80;;;30.50;69.80;;;;;;5055436;28;20204;-81
2022/06/19 08:37:30;;;;;;;14.25;7.40;;;30.40;66.20;;;;;;5057404;28;20201;-79
2022/06/19 08:39:56;;;;;;;13.57;6.90;;;30.40;66.80;;;;;;5057194;28;20653;-79
2022/06/19 08:42:42;;;;;;;16.30;7.35;;;30.40;64.10;;;;;;5057573;28;20587;-81
2022/06/19 08:45:24;;;;;;;18.67;7.25;;;30.30;62.50;;;;;;5066413;28;20236;-79
2022/06/19 08:48:07;;;;;;;15.75;7.28;;;30.80;64.10;;;;;;5063067;28;20209;-80
2022/06/19 08:50:38;;;;;;;14.90;7.57;;;31.10;61.00;;;;;;5056070;28;20197;-81
2022/06/19 08:53:18;;;;;;;21.73;8.20;;;31.50;59.70;;;;;;5056420;28;20198;-80
2022/06/19 08:55:52;;;;;;;21.75;8.10;;;31.20;57.90;;;;;;5055515;28;20201;-80
2022/06/19 08:58:30;;;;;;;12.52;7.15;;;31.30;56.60;;;;;;5055772;28;20210;-79
2022/06/19 09:01:01;;;;;;;19.80;8.10;;;31.20;56.70;;;;;;5055403;28;20193;-78
2022/06/19 09:06:27;;;;;;;14.35;7.43;;;31.70;52.80;;;;;;5054632;28;20225;-78
2022/06/19 09:09:11;;;;;;;21.33;8.60;;;31.80;51.10;;;;;;5060486;28;20213;-78
2022/06/19 09:11:51;;;;;;;19.30;7.63;;;32.20;49.80;;;;;;5068905;28;20194;-78
2022/06/19 09:14:37;;;;;;;19.38;7.55;;;31.90;48.40;;;;;;5078545;28;20212;-78
2022/06/19 09:17:11;;;;;;;16.83;7.03;;;32.10;46.10;;;;;;5077430;28;20253;-78
2022/06/19 09:19:58;;;;;;;19.52;7.40;;;32.20;45.10;;;;;;5078283;28;20202;-79
2022/06/19 09:23:09;;;;;;;17.75;8.05;;;32.00;44.30;;;;;;5074412;28;20656;-79
2022/06/19 09:25:45;;;;;;;18.45;7.30;;;32.10;44.30;;;;;;4993859;28;20609;-78
2022/06/19 09:28:18;;;;;;;11.73;6.32;;;31.80;42.60;;;;;;4993585;28;20234;-78
2022/06/19 09:30:49;;;;;;;30.77;7.32;;;31.80;42.30;;;;;;5026921;28;20198;-78
2022/06/19 09:33:20;;;;;;;15.52;6.72;;;31.90;42.10;;;;;;5054895;28;20611;-79
2022/06/19 09:35:54;;;;;;;21.98;7.40;;;31.80;41.70;;;;;;5054258;28;20244;-79
2022/06/19 09:38:26;;;;;;;19.98;6.30;;;32.30;40.70;;;;;;5054638;28;20201;-78
2022/06/19 09:40:56;;;;;;;15.20;7.00;;;32.60;39.40;;;;;;5054791;28;20569;-76
2022/06/19 09:43:28;;;;;;;21.98;6.95;;;33.00;39.60;;;;;;5054754;28;20198;-78
2022/06/19 09:46:01;;;;;;;12.02;7.00;;;33.60;38.20;;;;;;5054455;28;20286;-76
2022/06/19 09:48:35;;;;;;;16.65;7.18;;;33.70;37.40;;;;;;5054576;28;20206;-74
2022/06/19 09:51:08;;;;;;;16.50;7.20;;;33.70;36.80;;;;;;5054553;28;20206;-75
2022/06/19 09:53:42;;;;;;;15.95;6.47;;;33.40;36.00;;;;;;5054480;28;20202;-74
2022/06/19 09:56:14;;;;;;;17.55;6.60;;;33.40;35.20;;;;;;5054339;28;20224;-76
2022/06/19 09:58:47;;;;;;;20.08;7.45;;;33.00;34.80;;;;;;5054489;28;20223;-76
2022/06/19 10:01:17;;;;;;;14.32;7.03;;;33.00;34.80;;;;;;5053982;28;20197;-75
2022/06/19 10:03:50;;;;;;;19.17;7.72;;;33.20;35.50;;;;;;5054284;28;20197;-75
2022/06/19 10:06:22;;;;;;;13.63;7.22;;;33.00;34.80;;;;;;5054072;28;20229;-75
2022/06/19 10:08:54;;;;;;;17.38;7.68;;;32.80;34.00;;;;;;5054309;28;20198;-76
2022/06/19 10:11:24;;;;;;;14.10;6.80;;;33.30;32.50;;;;;;5054216;28;20204;-75
2022/06/19 10:13:55;;;;;;;20.38;6.60;;;33.20;31.90;;;;;;5054172;28;20198;-75
2022/06/19 10:16:28;;;;;;;13.20;6.95;;;33.20;31.20;;;;;;5054088;28;20280;-76
2022/06/19 10:18:58;;;;;;;16.85;7.03;;;34.10;30.50;;;;;;5053882;28;20588;-75
2022/06/19 10:24:32;;;;;;;22.75;6.72;;;33.50;29.50;;;;;;5031756;28;20201;-75
2022/06/19 10:27:04;;;;;;;17.35;7.05;;;34.20;28.30;;;;;;5049363;28;20286;-76
2022/06/19 10:29:45;;;;;;;19.40;7.43;;;34.70;28.20;;;;;;5053516;28;20258;-74
2022/06/19 10:32:27;;;;;;;15.65;6.70;;;34.20;27.50;;;;;;5053647;28;20270;-75
2022/06/19 10:35:04;;;;;;;17.75;7.60;;;34.50;27.90;;;;;;5053084;28;20197;-75
2022/06/19 10:37:39;;;;;;;13.43;6.35;;;34.50;27.60;;;;;;5053505;28;20193;-76
2022/06/19 10:40:22;;;;;;;15.95;7.22;;;34.90;27.70;;;;;;5053631;28;20197;-75
2022/06/19 10:43:01;;;;;;;18.10;7.18;;;34.50;27.00;;;;;;5053616;28;20717;-76
2022/06/19 10:45:35;;;;;;;15.20;6.85;;;34.10;27.50;;;;;;5053345;28;20627;-74
2022/06/19 10:48:29;;;;;;;15.48;7.28;;;34.90;27.90;;;;;;5053511;28;20675;-79
2022/06/19 10:51:07;;;;;;;12.65;7.18;;;35.10;26.30;;;;;;5050577;28;20658;-78
2022/06/19 10:53:47;;;;;;;15.90;6.65;;;34.50;26.90;;;;;;5053395;28;20197;-74
2022/06/19 10:56:26;;;;;;;17.50;7.72;;;36.40;26.00;;;;;;5053123;28;20197;-73
2022/06/19 10:58:53;;;;;;;17.13;8.00;;;36.00;26.00;;;;;;5053467;28;20270;-76
2022/06/19 11:04:14;;;;;;;15.77;7.10;;;36.20;26.00;;;;;;5052153;28;20204;-75
2022/06/19 11:06:48;;;;;;;15.07;8.07;;;35.80;25.20;;;;;;5052804;28;20291;-75
2022/06/19 11:09:18;;;;;;;15.50;7.20;;;35.80;25.30;;;;;;5053191;28;20201;-75
2022/06/19 11:11:47;;;;;;;20.00;7.90;;;36.40;24.90;;;;;;5052843;28;20239;-76
2022/06/19 11:14:27;;;;;;;19.35;7.32;;;35.90;25.00;;;;;;5050997;28;20246;-75
2022/06/19 11:16:56;;;;;;;17.48;7.32;;;36.40;24.00;;;;;;5050589;28;20229;-75
2022/06/19 11:19:40;;;;;;;13.30;7.32;;;36.50;23.40;;;;;;5050793;28;20197;-75
2022/06/19 11:22:18;;;;;;;21.30;7.78;;;36.70;23.20;;;;;;5050914;28;20208;-75
2022/06/19 11:24:46;;;;;;;17.63;7.90;;;37.30;22.90;;;;;;5050813;28;20213;-75
2022/06/19 11:27:18;;;;;;;17.52;7.50;;;35.90;23.50;;;;;;5050717;28;20980;-75
2022/06/19 11:29:48;;;;;;;16.35;7.90;;;36.00;23.30;;;;;;5052635;28;20600;-76
2022/06/19 11:32:17;;;;;;;20.52;7.78;;;36.40;23.00;;;;;;5052908;28;20615;-75
2022/06/19 11:34:57;;;;;;;13.65;7.80;;;37.00;23.00;;;;;;5052599;28;20729;-75
2022/06/19 11:37:28;;;;;;;18.10;7.40;;;36.90;23.10;;;;;;5052759;28;20205;-76
2022/06/19 11:40:11;;;;;;;19.13;7.55;;;37.60;22.60;;;;;;5052576;28;20287;-75
2022/06/19 11:42:45;;;;;;;17.38;7.53;;;37.70;21.90;;;;;;5052766;28;20205;-76
2022/06/19 11:45:23;;;;;;;20.90;7.88;;;38.40;21.60;;;;;;5052715;28;20204;-76
2022/06/19 11:48:00;;;;;;;17.38;7.32;;;38.00;21.50;;;;;;5056316;28;20193;-76
2022/06/19 11:50:40;;;;;;;15.52;6.97;;;37.30;21.50;;;;;;5056704;28;20608;-75
2022/06/19 11:53:14;;;;;;;21.00;7.45;;;37.10;21.30;;;;;;5056765;28;20197;-75
2022/06/19 11:55:44;;;;;;;18.35;7.70;;;36.80;21.70;;;;;;5056754;28;20254;-76
2022/06/19 11:58:21;;;;;;;14.32;7.70;;;37.80;21.20;;;;;;5056713;28;20201;-75
2022/06/19 12:00:57;;;;;;;13.15;7.13;;;37.90;20.70;;;;;;5056277;28;20211;-76
2022/06/19 12:03:31;;;;;;;13.90;7.07;;;38.10;20.60;;;;;;5056439;28;20660;-76
2022/06/19 12:06:02;;;;;;;17.42;7.35;;;37.40;21.50;;;;;;5056537;28;20267;-75
2022/06/19 12:08:32;;;;;;;18.80;7.38;;;38.30;20.80;;;;;;5056591;28;20228;-76
2022/06/19 12:11:01;;;;;;;19.90;7.00;;;37.90;20.00;;;;;;5056424;28;20227;-76
2022/06/19 12:13:30;;;;;;;16.88;7.10;;;37.50;19.50;;;;;;5056624;28;20271;-75
2022/06/19 12:16:02;;;;;;;18.90;7.40;;;37.20;19.80;;;;;;5058550;28;20208;-75
2022/06/19 12:18:30;;;;;;;25.42;7.43;;;36.80;19.90;;;;;;5056274;28;20225;-75
2022/06/19 12:21:06;;;;;;;16.55;7.25;;;37.90;19.90;;;;;;5056666;28;20300;-75
2022/06/19 12:23:41;;;;;;;16.25;7.43;;;38.00;19.20;;;;;;5057065;28;20200;-75
2022/06/19 12:26:12;;;;;;;15.15;7.55;;;38.20;19.80;;;;;;5057116;28;20220;-74
2022/06/19 12:28:45;;;;;;;13.10;7.18;;;38.70;19.10;;;;;;5056809;28;20193;-76
2022/06/19 12:31:14;;;;;;;16.80;7.20;;;38.30;19.00;;;;;;5057055;28;20583;-76
2022/06/19 12:33:46;;;;;;;16.55;7.40;;;38.40;19.10;;;;;;5057889;28;20263;-75
2022/06/19 12:36:16;;;;;;;19.17;7.00;;;38.10;19.40;;;;;;5057580;28;20599;-75
2022/06/19 12:38:43;;;;;;;17.95;7.38;;;37.70;18.70;;;;;;5057421;28;20197;-75
2022/06/19 12:41:28;;;;;;;19.67;7.60;;;38.70;18.70;;;;;;5057285;28;20525;-75
2022/06/19 12:44:08;;;;;;;16.05;6.70;;;38.00;18.90;;;;;;5057918;28;20267;-75
2022/06/19 12:46:45;;;;;;;16.52;7.03;;;38.30;18.40;;;;;;5058689;28;20243;-74
2022/06/19 12:49:38;;;;;;;10.57;6.32;;;39.20;18.50;;;;;;5059351;28;20266;-76
2022/06/19 12:52:14;;;;;;;15.98;7.30;;;39.40;17.60;;;;;;5056896;28;20205;-75
2022/06/19 12:55:10;;;;;;;22.67;7.75;;;39.80;17.60;;;;;;5057195;28;20220;-76
2022/06/19 12:57:54;;;;;;;19.90;7.90;;;39.50;17.10;;;;;;5056612;28;20710;-75
2022/06/19 13:00:36;;;;;;;18.42;8.10;;;39.80;16.90;;;;;;5057144;28;20196;-77
2022/06/19 13:03:26;;;;;;;21.33;7.70;;;39.40;17.00;;;;;;5058194;28;20361;-75
2022/06/19 13:06:03;;;;;;;16.02;7.35;;;38.50;16.90;;;;;;5042755;28;20250;-76
2022/06/19 13:08:41;;;;;;;21.25;8.13;;;38.50;17.50;;;;;;5055183;28;20727;-74